sensor_id;sensor_type;location;lat;lon;timestamp;pressure;altitude;pressure_sealevel;temperature;humidity
10606;BME280;5350;42.698;23.148;2023-02-28T00:00:30;94070.91;;;7.96;100.00
10606;BME280;5350;42.698;23.148;2023-02-28T00:02:57;94069.31;;;7.85;100.00
10606;BME280;5350;42.698;23.148;2023-02-28T00:05:25;94076.59;;;7.53;100.00
10606;BME280;5350;42.698;23.148;2023-02-28T00:07:52;94070.56;;;7.48;100.00
10606;BME280;5350;42.698;23.148;2023-02-28T00:10:20;94086.78;;;7.40;100.00
10606;BME280;5350;42.698;23.148;2023-02-28T00:12:48;94082.88;;;7.42;100.00
10606;BME280;5350;42.698;23.148;2023-02-28T00:15:15;94091.50;;;7.48;100.00
10606;BME280;5350;42.698;23.148;2023-02-28T00:17:44;94087.59;;;7.50;100.00
10606;BME280;5350;42.698;23.148;2023-02-28T00:20:12;94095.09;;;7.26;100.00
10606;BME280;5350;42.698;23.148;2023-02-28T00:22:41;94094.53;;;7.14;100.00
10606;BME280;5350;42.698;23.148;2023-02-28T00:25:09;94100.13;;;6.81;100.00
10606;BME280;5350;42.698;23.148;2023-02-28T00:27:37;94104.31;;;6.77;100.00
10606;BME280;5350;42.698;23.148;2023-02-28T00:30:06;94093.59;;;6.37;100.00
10606;BME280;5350;42.698;23.148;2023-02-28T00:32:34;94098.75;;;6.27;100.00
10606;BME280;5350;42.698;23.148;2023-02-28T00:35:02;94096.03;;;6.12;100.00
10606;BME280;5350;42.698;23.148;2023-02-28T00:37:29;94104.41;;;6.14;100.00
10606;BME280;5350;42.698;23.148;2023-02-28T00:39:56;94099.25;;;6.24;100.00
10606;BME280;5350;42.698;23.148;2023-02-28T00:42:23;94103.97;;;6.27;100.00
10606;BME280;5350;42.698;23.148;2023-02-28T00:44:50;94106.47;;;6.12;100.00
10606;BME280;5350;42.698;23.148;2023-02-28T00:47:17;94114.44;;;6.27;100.00
10606;BME280;5350;42.698;23.148;2023-02-28T00:49:43;94112.28;;;6.19;100.00
10606;BME280;5350;42.698;23.148;2023-02-28T00:52:11;94104.38;;;6.09;100.00
10606;BME280;5350;42.698;23.148;2023-02-28T00:54:38;94101.28;;;6.17;100.00
10606;BME280;5350;42.698;23.148;2023-02-28T00:57:05;94101.78;;;6.14;100.00
10606;BME280;5350;42.698;23.148;2023-02-28T00:59:32;94101.50;;;6.10;100.00
10606;BME280;5350;42.698;23.148;2023-02-28T01:01:58;94095.75;;;6.13;100.00
10606;BME280;5350;42.698;23.148;2023-02-28T01:04:25;94098.22;;;6.25;100.00
10606;BME280;5350;42.698;23.148;2023-02-28T01:06:52;94098.03;;;6.36;100.00
10606;BME280;5350;42.698;23.148;2023-02-28T01:09:20;94104.59;;;6.07;100.00
10606;BME280;5350;42.698;23.148;2023-02-28T01:11:47;94101.63;;;5.94;100.00
10606;BME280;5350;42.698;23.148;2023-02-28T01:14:15;94084.22;;;6.04;100.00
10606;BME280;5350;42.698;23.148;2023-02-28T01:16:42;94094.00;;;6.19;100.00
10606;BME280;5350;42.698;23.148;2023-02-28T01:19:09;94092.25;;;6.29;100.00
10606;BME280;5350;42.698;23.148;2023-02-28T01:21:36;94100.88;;;5.98;100.00
10606;BME280;5350;42.698;23.148;2023-02-28T01:24:04;94087.31;;;5.75;100.00
10606;BME280;5350;42.698;23.148;2023-02-28T01:26:32;94083.84;;;5.91;100.00
10606;BME280;5350;42.698;23.148;2023-02-28T01:28:59;94081.88;;;6.03;100.00
10606;BME280;5350;42.698;23.148;2023-02-28T01:31:26;94092.38;;;6.13;100.00
10606;BME280;5350;42.698;23.148;2023-02-28T01:33:52;94089.19;;;6.06;100.00
10606;BME280;5350;42.698;23.148;2023-02-28T01:36:21;94088.72;;;6.14;100.00
10606;BME280;5350;42.698;23.148;2023-02-28T01:38:48;94086.38;;;6.12;100.00
10606;BME280;5350;42.698;23.148;2023-02-28T01:41:17;94081.72;;;6.19;100.00
10606;BME280;5350;42.698;23.148;2023-02-28T01:44:00;94088.78;;;6.24;100.00
10606;BME280;5350;42.698;23.148;2023-02-28T01:46:30;94089.09;;;6.27;100.00
10606;BME280;5350;42.698;23.148;2023-02-28T01:49:02;94093.31;;;6.33;100.00
10606;BME280;5350;42.698;23.148;2023-02-28T01:51:34;94093.09;;;6.40;100.00
10606;BME280;5350;42.698;23.148;2023-02-28T01:54:04;94087.34;;;6.43;100.00
10606;BME280;5350;42.698;23.148;2023-02-28T01:56:41;94085.84;;;6.52;100.00
10606;BME280;5350;42.698;23.148;2023-02-28T01:59:12;94079.91;;;6.62;100.00
10606;BME280;5350;42.698;23.148;2023-02-28T02:01:40;94085.16;;;6.72;100.00
10606;BME280;5350;42.698;23.148;2023-02-28T02:04:08;94099.28;;;6.71;100.00
10606;BME280;5350;42.698;23.148;2023-02-28T02:06:38;94087.25;;;6.70;100.00
10606;BME280;5350;42.698;23.148;2023-02-28T02:09:05;94103.03;;;6.80;100.00
10606;BME280;5350;42.698;23.148;2023-02-28T02:11:32;94099.09;;;6.82;100.00
10606;BME280;5350;42.698;23.148;2023-02-28T02:14:41;94086.84;;;6.93;100.00
10606;BME280;5350;42.698;23.148;2023-02-28T02:17:18;94091.06;;;6.94;100.00
10606;BME280;5350;42.698;23.148;2023-02-28T02:20:16;94088.72;;;6.97;100.00
10606;BME280;5350;42.698;23.148;2023-02-28T02:23:20;94098.41;;;7.02;100.00
10606;BME280;5350;42.698;23.148;2023-02-28T02:25:53;94094.78;;;7.08;100.00
10606;BME280;5350;42.698;23.148;2023-02-28T02:28:39;94086.16;;;7.12;100.00
10606;BME280;5350;42.698;23.148;2023-02-28T02:31:25;94083.81;;;7.16;100.00
10606;BME280;5350;42.698;23.148;2023-02-28T02:34:10;94083.03;;;7.20;100.00
10606;BME280;5350;42.698;23.148;2023-02-28T02:36:49;94088.81;;;7.22;100.00
10606;BME280;5350;42.698;23.148;2023-02-28T02:39:19;94084.13;;;7.30;100.00
10606;BME280;5350;42.698;23.148;2023-02-28T02:41:52;94091.44;;;7.33;100.00
10606;BME280;5350;42.698;23.148;2023-02-28T02:44:21;94078.34;;;7.22;100.00
10606;BME280;5350;42.698;23.148;2023-02-28T02:46:54;94092.41;;;7.06;100.00
10606;BME280;5350;42.698;23.148;2023-02-28T02:49:25;94097.13;;;7.09;100.00
10606;BME280;5350;42.698;23.148;2023-02-28T02:51:54;94098.72;;;7.10;100.00
10606;BME280;5350;42.698;23.148;2023-02-28T02:54:25;94078.50;;;7.01;100.00
10606;BME280;5350;42.698;23.148;2023-02-28T02:56:55;94102.66;;;7.13;100.00
10606;BME280;5350;42.698;23.148;2023-02-28T02:59:24;94104.50;;;7.17;100.00
10606;BME280;5350;42.698;23.148;2023-02-28T03:01:54;94100.34;;;7.21;100.00
10606;BME280;5350;42.698;23.148;2023-02-28T03:04:25;94103.75;;;7.27;100.00
10606;BME280;5350;42.698;23.148;2023-02-28T03:06:54;94099.56;;;7.31;100.00
10606;BME280;5350;42.698;23.148;2023-02-28T03:09:21;94101.41;;;7.36;100.00
10606;BME280;5350;42.698;23.148;2023-02-28T03:11:48;94107.44;;;7.36;100.00
10606;BME280;5350;42.698;23.148;2023-02-28T03:14:25;94113.72;;;7.30;100.00
10606;BME280;5350;42.698;23.148;2023-02-28T03:17:13;94114.25;;;7.32;100.00
10606;BME280;5350;42.698;23.148;2023-02-28T03:19:57;94112.38;;;7.33;100.00
10606;BME280;5350;42.698;23.148;2023-02-28T03:22:49;94112.91;;;7.30;100.00
10606;BME280;5350;42.698;23.148;2023-02-28T03:25:21;94118.00;;;6.94;100.00
10606;BME280;5350;42.698;23.148;2023-02-28T03:27:55;94121.06;;;6.81;100.00
10606;BME280;5350;42.698;23.148;2023-02-28T03:30:31;94126.25;;;6.71;100.00
10606;BME280;5350;42.698;23.148;2023-02-28T03:33:03;94129.88;;;6.65;100.00
10606;BME280;5350;42.698;23.148;2023-02-28T03:35:36;94142.09;;;6.60;100.00
10606;BME280;5350;42.698;23.148;2023-02-28T03:38:09;94133.25;;;6.66;100.00
10606;BME280;5350;42.698;23.148;2023-02-28T03:40:42;94140.63;;;6.74;100.00
10606;BME280;5350;42.698;23.148;2023-02-28T03:43:15;94140.84;;;6.67;100.00
10606;BME280;5350;42.698;23.148;2023-02-28T03:45:45;94142.41;;;6.68;100.00
10606;BME280;5350;42.698;23.148;2023-02-28T03:48:16;94144.28;;;6.73;100.00
10606;BME280;5350;42.698;23.148;2023-02-28T03:50:50;94146.13;;;6.77;100.00
10606;BME280;5350;42.698;23.148;2023-02-28T03:53:22;94145.13;;;6.83;100.00
10606;BME280;5350;42.698;23.148;2023-02-28T03:55:54;94150.13;;;6.90;100.00
10606;BME280;5350;42.698;23.148;2023-02-28T03:58:28;94156.38;;;6.84;100.00
10606;BME280;5350;42.698;23.148;2023-02-28T04:01:02;94152.13;;;6.73;100.00
10606;BME280;5350;42.698;23.148;2023-02-28T04:03:34;94160.19;;;6.66;100.00
10606;BME280;5350;42.698;23.148;2023-02-28T04:06:04;94152.34;;;6.66;100.00
10606;BME280;5350;42.698;23.148;2023-02-28T04:08:32;94156.53;;;6.67;100.00
10606;BME280;5350;42.698;23.148;2023-02-28T04:11:02;94166.75;;;6.37;100.00
10606;BME280;5350;42.698;23.148;2023-02-28T04:13:31;94158.91;;;6.32;100.00
10606;BME280;5350;42.698;23.148;2023-02-28T04:15:58;94157.03;;;6.32;100.00
10606;BME280;5350;42.698;23.148;2023-02-28T04:18:24;94154.94;;;6.29;100.00
10606;BME280;5350;42.698;23.148;2023-02-28T04:20:51;94146.19;;;6.14;100.00
10606;BME280;5350;42.698;23.148;2023-02-28T04:23:19;94149.31;;;6.11;100.00
10606;BME280;5350;42.698;23.148;2023-02-28T04:25:46;94151.16;;;6.15;100.00
10606;BME280;5350;42.698;23.148;2023-02-28T04:28:12;94155.16;;;6.23;100.00
10606;BME280;5350;42.698;23.148;2023-02-28T04:30:39;94154.44;;;6.32;100.00
10606;BME280;5350;42.698;23.148;2023-02-28T04:33:06;94151.00;;;6.27;100.00
10606;BME280;5350;42.698;23.148;2023-02-28T04:35:32;94153.94;;;6.35;100.00
10606;BME280;5350;42.698;23.148;2023-02-28T04:37:59;94161.28;;;6.38;100.00
10606;BME280;5350;42.698;23.148;2023-02-28T04:40:27;94164.16;;;6.37;100.00
10606;BME280;5350;42.698;23.148;2023-02-28T04:42:54;94167.09;;;6.45;100.00
10606;BME280;5350;42.698;23.148;2023-02-28T04:45:21;94166.91;;;6.57;100.00
10606;BME280;5350;42.698;23.148;2023-02-28T04:47:47;94175.53;;;6.58;100.00
10606;BME280;5350;42.698;23.148;2023-02-28T04:50:14;94174.47;;;6.54;100.00
10606;BME280;5350;42.698;23.148;2023-02-28T04:52:41;94173.22;;;6.61;100.00
10606;BME280;5350;42.698;23.148;2023-02-28T04:55:08;94176.41;;;6.68;100.00
10606;BME280;5350;42.698;23.148;2023-02-28T04:57:37;94177.50;;;6.77;100.00
10606;BME280;5350;42.698;23.148;2023-02-28T05:00:04;94181.16;;;6.76;100.00
10606;BME280;5350;42.698;23.148;2023-02-28T05:02:37;94182.69;;;6.72;100.00
10606;BME280;5350;42.698;23.148;2023-02-28T05:05:03;94178.53;;;6.71;100.00
10606;BME280;5350;42.698;23.148;2023-02-28T05:07:30;94178.75;;;6.70;100.00
10606;BME280;5350;42.698;23.148;2023-02-28T05:09:57;94179.00;;;6.68;100.00
10606;BME280;5350;42.698;23.148;2023-02-28T05:12:24;94186.09;;;6.73;100.00
10606;BME280;5350;42.698;23.148;2023-02-28T05:14:52;94187.94;;;6.72;100.00
10606;BME280;5350;42.698;23.148;2023-02-28T05:17:18;94185.31;;;6.72;100.00
10606;BME280;5350;42.698;23.148;2023-02-28T05:19:45;94192.44;;;6.82;100.00
10606;BME280;5350;42.698;23.148;2023-02-28T05:22:13;94185.97;;;6.89;100.00
10606;BME280;5350;42.698;23.148;2023-02-28T05:24:41;94190.69;;;6.92;100.00
10606;BME280;5350;42.698;23.148;2023-02-28T05:27:08;94189.91;;;6.92;100.00
10606;BME280;5350;42.698;23.148;2023-02-28T05:29:35;94199.63;;;7.01;100.00
10606;BME280;5350;42.698;23.148;2023-02-28T05:32:08;94201.00;;;7.09;100.00
10606;BME280;5350;42.698;23.148;2023-02-28T05:34:36;94205.44;;;7.13;100.00
10606;BME280;5350;42.698;23.148;2023-02-28T05:37:03;94208.63;;;7.20;100.00
10606;BME280;5350;42.698;23.148;2023-02-28T05:39:29;94209.97;;;7.28;100.00
10606;BME280;5350;42.698;23.148;2023-02-28T05:41:56;94214.44;;;7.28;100.00
10606;BME280;5350;42.698;23.148;2023-02-28T05:44:23;94220.75;;;7.32;100.00
10606;BME280;5350;42.698;23.148;2023-02-28T05:46:50;94217.59;;;7.35;100.00
10606;BME280;5350;42.698;23.148;2023-02-28T05:49:18;94192.97;;;7.25;100.00
10606;BME280;5350;42.698;23.148;2023-02-28T05:51:45;94216.56;;;7.41;100.00
10606;BME280;5350;42.698;23.148;2023-02-28T05:54:11;94217.63;;;7.40;100.00
10606;BME280;5350;42.698;23.148;2023-02-28T05:56:38;94208.47;;;7.37;100.00
10606;BME280;5350;42.698;23.148;2023-02-28T05:59:06;94212.13;;;7.36;100.00
10606;BME280;5350;42.698;23.148;2023-02-28T06:01:34;94223.13;;;7.38;100.00
10606;BME280;5350;42.698;23.148;2023-02-28T06:04:02;94217.13;;;7.43;100.00
10606;BME280;5350;42.698;23.148;2023-02-28T06:06:31;94219.75;;;7.48;100.00
10606;BME280;5350;42.698;23.148;2023-02-28T06:08:59;94216.34;;;7.47;100.00
10606;BME280;5350;42.698;23.148;2023-02-28T06:11:26;94212.41;;;7.40;100.00
10606;BME280;5350;42.698;23.148;2023-02-28T06:13:54;94224.47;;;7.46;100.00
10606;BME280;5350;42.698;23.148;2023-02-28T06:16:21;94219.19;;;7.41;100.00
10606;BME280;5350;42.698;23.148;2023-02-28T06:18:48;94226.81;;;7.42;100.00
10606;BME280;5350;42.698;23.148;2023-02-28T06:21:15;94220.28;;;7.45;100.00
10606;BME280;5350;42.698;23.148;2023-02-28T06:23:43;94226.81;;;7.47;100.00
10606;BME280;5350;42.698;23.148;2023-02-28T06:26:10;94230.75;;;7.50;100.00
10606;BME280;5350;42.698;23.148;2023-02-28T06:28:36;94228.19;;;7.55;100.00
10606;BME280;5350;42.698;23.148;2023-02-28T06:31:07;94216.56;;;7.41;100.00
10606;BME280;5350;42.698;23.148;2023-02-28T06:33:35;94227.13;;;7.51;100.00
10606;BME280;5350;42.698;23.148;2023-02-28T06:36:02;94236.00;;;7.45;100.00
10606;BME280;5350;42.698;23.148;2023-02-28T06:38:29;94240.22;;;7.51;100.00
10606;BME280;5350;42.698;23.148;2023-02-28T06:40:59;94238.88;;;7.53;100.00
10606;BME280;5350;42.698;23.148;2023-02-28T06:43:28;94230.72;;;7.40;100.00
10606;BME280;5350;42.698;23.148;2023-02-28T06:45:56;94240.22;;;7.51;100.00
10606;BME280;5350;42.698;23.148;2023-02-28T06:48:23;94244.66;;;7.50;100.00
10606;BME280;5350;42.698;23.148;2023-02-28T06:50:50;94251.75;;;7.55;100.00
10606;BME280;5350;42.698;23.148;2023-02-28T06:53:17;94249.94;;;7.60;100.00
10606;BME280;5350;42.698;23.148;2023-02-28T06:55:43;94245.50;;;7.66;100.00
10606;BME280;5350;42.698;23.148;2023-02-28T06:58:11;94249.13;;;7.60;100.00
10606;BME280;5350;42.698;23.148;2023-02-28T07:00:44;94253.53;;;7.49;100.00
10606;BME280;5350;42.698;23.148;2023-02-28T07:03:12;94249.09;;;7.50;100.00
10606;BME280;5350;42.698;23.148;2023-02-28T07:05:40;94253.88;;;7.63;100.00
10606;BME280;5350;42.698;23.148;2023-02-28T07:08:07;94250.75;;;7.71;100.00
10606;BME280;5350;42.698;23.148;2023-02-28T07:10:34;94257.00;;;7.60;100.00
10606;BME280;5350;42.698;23.148;2023-02-28T07:13:04;94255.97;;;7.66;100.00
10606;BME280;5350;42.698;23.148;2023-02-28T07:15:32;94250.22;;;7.69;100.00
10606;BME280;5350;42.698;23.148;2023-02-28T07:17:58;94261.25;;;7.71;100.00
10606;BME280;5350;42.698;23.148;2023-02-28T07:20:25;94257.31;;;7.73;100.00
10606;BME280;5350;42.698;23.148;2023-02-28T07:22:52;94255.78;;;7.82;100.00
10606;BME280;5350;42.698;23.148;2023-02-28T07:25:22;94255.31;;;7.90;100.00
10606;BME280;5350;42.698;23.148;2023-02-28T07:27:48;94258.69;;;7.86;100.00
10606;BME280;5350;42.698;23.148;2023-02-28T07:30:16;94248.22;;;7.86;100.00
10606;BME280;5350;42.698;23.148;2023-02-28T07:32:45;94248.72;;;7.83;100.00
10606;BME280;5350;42.698;23.148;2023-02-28T07:35:11;94255.50;;;7.79;100.00
10606;BME280;5350;42.698;23.148;2023-02-28T07:37:40;94262.31;;;7.75;100.00
10606;BME280;5350;42.698;23.148;2023-02-28T07:40:10;94254.75;;;7.83;100.00
10606;BME280;5350;42.698;23.148;2023-02-28T07:42:39;94258.72;;;7.96;100.00
10606;BME280;5350;42.698;23.148;2023-02-28T07:45:07;94247.19;;;7.97;100.00
10606;BME280;5350;42.698;23.148;2023-02-28T07:47:36;94253.44;;;7.91;100.00
10606;BME280;5350;42.698;23.148;2023-02-28T07:50:05;94250.34;;;7.94;100.00
10606;BME280;5350;42.698;23.148;2023-02-28T07:52:32;94253.22;;;7.97;100.00
10606;BME280;5350;42.698;23.148;2023-02-28T07:54:59;94244.09;;;8.05;100.00
10606;BME280;5350;42.698;23.148;2023-02-28T07:57:26;94252.50;;;8.17;100.00
10606;BME280;5350;42.698;23.148;2023-02-28T07:59:53;94245.75;;;8.31;100.00
10606;BME280;5350;42.698;23.148;2023-02-28T08:02:19;94247.31;;;8.37;100.00
10606;BME280;5350;42.698;23.148;2023-02-28T08:04:46;94247.59;;;8.46;100.00
10606;BME280;5350;42.698;23.148;2023-02-28T08:07:15;94250.19;;;8.41;100.00
10606;BME280;5350;42.698;23.148;2023-02-28T08:09:43;94245.75;;;8.41;100.00
10606;BME280;5350;42.698;23.148;2023-02-28T08:12:11;94245.75;;;8.41;100.00
10606;BME280;5350;42.698;23.148;2023-02-28T08:14:38;94251.78;;;8.42;100.00
10606;BME280;5350;42.698;23.148;2023-02-28T08:17:05;94256.75;;;8.33;100.00
10606;BME280;5350;42.698;23.148;2023-02-28T08:19:32;94266.72;;;8.31;100.00
10606;BME280;5350;42.698;23.148;2023-02-28T08:21:59;94261.19;;;8.33;100.00
10606;BME280;5350;42.698;23.148;2023-02-28T08:24:27;94260.69;;;8.36;100.00
10606;BME280;5350;42.698;23.148;2023-02-28T08:26:54;94260.44;;;8.37;100.00
10606;BME280;5350;42.698;23.148;2023-02-28T08:29:21;94262.53;;;8.45;100.00
10606;BME280;5350;42.698;23.148;2023-02-28T08:31:48;94256.78;;;8.38;100.00
10606;BME280;5350;42.698;23.148;2023-02-28T08:34:16;94262.00;;;8.43;100.00
10606;BME280;5350;42.698;23.148;2023-02-28T08:36:43;94259.13;;;8.40;100.00
10606;BME280;5350;42.698;23.148;2023-02-28T08:39:11;94257.31;;;8.50;100.00
10606;BME280;5350;42.698;23.148;2023-02-28T08:41:39;94260.47;;;8.62;100.00
10606;BME280;5350;42.698;23.148;2023-02-28T08:44:06;94258.09;;;8.66;100.00
10606;BME280;5350;42.698;23.148;2023-02-28T08:46:33;94254.94;;;8.54;100.00
10606;BME280;5350;42.698;23.148;2023-02-28T08:48:59;94263.59;;;8.54;100.00
10606;BME280;5350;42.698;23.148;2023-02-28T08:51:28;94266.22;;;8.49;100.00
10606;BME280;5350;42.698;23.148;2023-02-28T08:53:57;94274.63;;;8.46;100.00
10606;BME280;5350;42.698;23.148;2023-02-28T08:56:25;94263.84;;;8.38;100.00
10606;BME280;5350;42.698;23.148;2023-02-28T08:58:55;94257.28;;;8.35;100.00
10606;BME280;5350;42.698;23.148;2023-02-28T09:01:23;94261.69;;;8.25;100.00
10606;BME280;5350;42.698;23.148;2023-02-28T09:03:52;94257.81;;;8.32;100.00
10606;BME280;5350;42.698;23.148;2023-02-28T09:06:20;94252.56;;;8.37;100.00
10606;BME280;5350;42.698;23.148;2023-02-28T09:08:47;94249.34;;;8.20;100.00
10606;BME280;5350;42.698;23.148;2023-02-28T09:11:14;94256.47;;;8.35;100.00
10606;BME280;5350;42.698;23.148;2023-02-28T09:13:42;94251.28;;;8.45;100.00
10606;BME280;5350;42.698;23.148;2023-02-28T09:16:12;94251.53;;;8.43;100.00
10606;BME280;5350;42.698;23.148;2023-02-28T09:18:40;94251.28;;;8.50;100.00
10606;BME280;5350;42.698;23.148;2023-02-28T09:21:09;94255.22;;;8.42;100.00
10606;BME280;5350;42.698;23.148;2023-02-28T09:23:37;94252.06;;;8.40;100.00
10606;BME280;5350;42.698;23.148;2023-02-28T09:26:04;94252.34;;;8.59;100.00
10606;BME280;5350;42.698;23.148;2023-02-28T09:28:31;94261.53;;;8.81;100.00
10606;BME280;5350;42.698;23.148;2023-02-28T09:30:58;94258.09;;;8.66;100.00
10606;BME280;5350;42.698;23.148;2023-02-28T09:33:26;94255.25;;;8.77;100.00
10606;BME280;5350;42.698;23.148;2023-02-28T09:35:58;94258.13;;;8.76;100.00
10606;BME280;5350;42.698;23.148;2023-02-28T09:38:25;94255.50;;;8.76;100.00
10606;BME280;5350;42.698;23.148;2023-02-28T09:40:56;94250.50;;;8.84;100.00
10606;BME280;5350;42.698;23.148;2023-02-28T09:43:25;94246.03;;;8.95;100.00
10606;BME280;5350;42.698;23.148;2023-02-28T09:45:56;94262.81;;;9.14;100.00
10606;BME280;5350;42.698;23.148;2023-02-28T09:48:32;94255.47;;;9.01;100.00
10606;BME280;5350;42.698;23.148;2023-02-28T09:51:04;94256.78;;;9.19;100.00
10606;BME280;5350;42.698;23.148;2023-02-28T09:53:33;94248.13;;;9.23;100.00
10606;BME280;5350;42.698;23.148;2023-02-28T09:56:04;94244.16;;;9.31;100.00
10606;BME280;5350;42.698;23.148;2023-02-28T09:58:36;94244.66;;;9.43;100.00
10606;BME280;5350;42.698;23.148;2023-02-28T10:01:09;94249.91;;;9.48;100.00
10606;BME280;5350;42.698;23.148;2023-02-28T10:03:43;94246.50;;;9.52;100.00
10606;BME280;5350;42.698;23.148;2023-02-28T10:06:16;94242.00;;;9.58;100.00
10606;BME280;5350;42.698;23.148;2023-02-28T10:08:52;94238.59;;;9.57;100.00
10606;BME280;5350;42.698;23.148;2023-02-28T10:11:23;94233.91;;;9.44;100.00
10606;BME280;5350;42.698;23.148;2023-02-28T10:13:54;94229.91;;;9.62;100.00
10606;BME280;5350;42.698;23.148;2023-02-28T10:16:30;94224.31;;;9.79;100.00
10606;BME280;5350;42.698;23.148;2023-02-28T10:19:03;94228.72;;;9.93;100.00
10606;BME280;5350;42.698;23.148;2023-02-28T10:21:35;94224.25;;;9.99;100.00
10606;BME280;5350;42.698;23.148;2023-02-28T10:24:14;94226.59;;;10.00;100.00
10606;BME280;5350;42.698;23.148;2023-02-28T10:26:45;94227.59;;;10.14;100.00
10606;BME280;5350;42.698;23.148;2023-02-28T10:29:14;94227.00;;;10.32;100.00
10606;BME280;5350;42.698;23.148;2023-02-28T10:31:41;94226.22;;;10.32;100.00
10606;BME280;5350;42.698;23.148;2023-02-28T10:34:12;94225.47;;;10.21;100.00
10606;BME280;5350;42.698;23.148;2023-02-28T10:36:39;94217.03;;;10.24;100.00
10606;BME280;5350;42.698;23.148;2023-02-28T10:39:39;94208.34;;;10.29;100.00
10606;BME280;5350;42.698;23.148;2023-02-28T10:42:22;94204.41;;;10.26;100.00
10606;BME280;5350;42.698;23.148;2023-02-28T10:45:04;94214.91;;;10.26;100.00
10606;BME280;5350;42.698;23.148;2023-02-28T10:47:33;94194.38;;;10.33;100.00
10606;BME280;5350;42.698;23.148;2023-02-28T10:50:03;94192.25;;;10.35;100.00
10606;BME280;5350;42.698;23.148;2023-02-28T10:52:36;94175.47;;;10.31;100.00
10606;BME280;5350;42.698;23.148;2023-02-28T10:55:15;94191.88;;;10.52;100.00
10606;BME280;5350;42.698;23.148;2023-02-28T10:57:42;94191.34;;;10.55;100.00
10606;BME280;5350;42.698;23.148;2023-02-28T11:00:15;94174.75;;;10.60;100.00
10606;BME280;5350;42.698;23.148;2023-02-28T11:02:42;94180.81;;;10.55;100.00
10606;BME280;5350;42.698;23.148;2023-02-28T11:05:27;94179.47;;;10.58;100.00
10606;BME280;5350;42.698;23.148;2023-02-28T11:07:56;94173.38;;;10.62;100.00
10606;BME280;5350;42.698;23.148;2023-02-28T11:10:26;94156.25;;;10.70;100.00
10606;BME280;5350;42.698;23.148;2023-02-28T11:12:55;94165.19;;;10.69;100.00
10606;BME280;5350;42.698;23.148;2023-02-28T11:15:25;94165.78;;;10.89;100.00
10606;BME280;5350;42.698;23.148;2023-02-28T11:17:54;94157.47;;;11.06;100.00
10606;BME280;5350;42.698;23.148;2023-02-28T11:20:24;94151.50;;;11.24;100.00
10606;BME280;5350;42.698;23.148;2023-02-28T11:22:53;94149.69;;;11.43;100.00
10606;BME280;5350;42.698;23.148;2023-02-28T11:25:24;94142.63;;;11.62;100.00
10606;BME280;5350;42.698;23.148;2023-02-28T11:27:52;94148.88;;;11.71;100.00
10606;BME280;5350;42.698;23.148;2023-02-28T11:30:32;94151.59;;;11.85;100.00
10606;BME280;5350;42.698;23.148;2023-02-28T11:32:59;94141.00;;;12.09;100.00
10606;BME280;5350;42.698;23.148;2023-02-28T11:35:30;94144.06;;;12.16;100.00
10606;BME280;5350;42.698;23.148;2023-02-28T11:38:00;94141.94;;;12.18;100.00
10606;BME280;5350;42.698;23.148;2023-02-28T11:40:38;94137.56;;;12.08;100.00
10606;BME280;5350;42.698;23.148;2023-02-28T11:43:17;94132.63;;;12.01;100.00
10606;BME280;5350;42.698;23.148;2023-02-28T11:45:54;94132.03;;;12.10;100.00
10606;BME280;5350;42.698;23.148;2023-02-28T11:48:27;94135.56;;;12.19;100.00
10606;BME280;5350;42.698;23.148;2023-02-28T11:51:10;94128.44;;;12.19;100.00
10606;BME280;5350;42.698;23.148;2023-02-28T11:53:52;94138.84;;;12.29;100.00
10606;BME280;5350;42.698;23.148;2023-02-28T11:56:31;94131.16;;;12.33;100.00
10606;BME280;5350;42.698;23.148;2023-02-28T11:59:11;94138.06;;;12.47;100.00
10606;BME280;5350;42.698;23.148;2023-02-28T12:01:57;94140.69;;;12.29;100.00
10606;BME280;5350;42.698;23.148;2023-02-28T12:04:36;94132.66;;;12.20;100.00
10606;BME280;5350;42.698;23.148;2023-02-28T12:07:11;94129.50;;;11.99;100.00
10606;BME280;5350;42.698;23.148;2023-02-28T12:09:49;94128.09;;;12.07;100.00
10606;BME280;5350;42.698;23.148;2023-02-28T12:12:34;94124.03;;;12.15;100.00
10606;BME280;5350;42.698;23.148;2023-02-28T12:18:32;94122.75;;;11.93;100.00
10606;BME280;5350;42.698;23.148;2023-02-28T12:21:11;94119.91;;;11.90;100.00
10606;BME280;5350;42.698;23.148;2023-02-28T12:23:57;94105.38;;;11.92;100.00
10606;BME280;5350;42.698;23.148;2023-02-28T12:26:35;94118.06;;;11.90;100.00
10606;BME280;5350;42.698;23.148;2023-02-28T12:29:10;94122.09;;;11.83;100.00
10606;BME280;5350;42.698;23.148;2023-02-28T12:31:44;94114.56;;;11.95;100.00
10606;BME280;5350;42.698;23.148;2023-02-28T12:34:15;94121.38;;;12.15;100.00
10606;BME280;5350;42.698;23.148;2023-02-28T12:36:47;94117.97;;;12.14;100.00
10606;BME280;5350;42.698;23.148;2023-02-28T12:39:19;94114.63;;;12.09;100.00
10606;BME280;5350;42.698;23.148;2023-02-28T12:41:53;94115.81;;;11.97;100.00
10606;BME280;5350;42.698;23.148;2023-02-28T12:44:26;94114.41;;;11.86;100.00
10606;BME280;5350;42.698;23.148;2023-02-28T12:46:55;94113.34;;;11.87;100.00
10606;BME280;5350;42.698;23.148;2023-02-28T12:49:28;94094.97;;;11.82;100.00
10606;BME280;5350;42.698;23.148;2023-02-28T12:51:58;94109.06;;;11.91;100.00
10606;BME280;5350;42.698;23.148;2023-02-28T12:54:30;94103.72;;;11.96;100.00
10606;BME280;5350;42.698;23.148;2023-02-28T12:57:03;94103.53;;;11.93;100.00
10606;BME280;5350;42.698;23.148;2023-02-28T12:59:38;94105.22;;;12.02;100.00
10606;BME280;5350;42.698;23.148;2023-02-28T13:05:33;94102.53;;;12.08;100.00
10606;BME280;5350;42.698;23.148;2023-02-28T13:08:20;94097.88;;;12.18;100.00
10606;BME280;5350;42.698;23.148;2023-02-28T13:10:52;94094.94;;;12.20;100.00
10606;BME280;5350;42.698;23.148;2023-02-28T13:13:21;94091.22;;;12.21;100.00
10606;BME280;5350;42.698;23.148;2023-02-28T13:16:01;94109.50;;;12.17;100.00
10606;BME280;5350;42.698;23.148;2023-02-28T13:18:34;94097.09;;;12.18;100.00
10606;BME280;5350;42.698;23.148;2023-02-28T13:21:03;94096.88;;;12.14;100.00